sensor_id;sensor_type;location;lat;lon;timestamp;P1;durP1;ratioP1;P2;durP2;ratioP2
52764;SDS011;38650;44.536;18.664;2024-01-30T00:02:21;53.00;;;35.47;;
52764;SDS011;38650;44.536;18.664;2024-01-30T00:04:47;54.22;;;35.67;;
52764;SDS011;38650;44.536;18.664;2024-01-30T00:07:12;51.40;;;33.63;;
52764;SDS011;38650;44.536;18.664;2024-01-30T00:09:38;50.65;;;34.13;;
52764;SDS011;38650;44.536;18.664;2024-01-30T00:12:05;45.60;;;31.35;;
52764;SDS011;38650;44.536;18.664;2024-01-30T00:14:31;45.70;;;31.10;;
52764;SDS011;38650;44.536;18.664;2024-01-30T00:16:57;49.97;;;34.13;;
52764;SDS011;38650;44.536;18.664;2024-01-30T00:19:22;43.53;;;30.35;;
52764;SDS011;38650;44.536;18.664;2024-01-30T00:21:48;39.30;;;28.42;;
52764;SDS011;38650;44.536;18.664;2024-01-30T00:24:14;42.33;;;30.02;;
52764;SDS011;38650;44.536;18.664;2024-01-30T00:26:40;38.20;;;26.70;;
52764;SDS011;38650;44.536;18.664;2024-01-30T00:29:05;38.05;;;26.73;;
52764;SDS011;38650;44.536;18.664;2024-01-30T00:31:31;41.80;;;26.50;;
52764;SDS011;38650;44.536;18.664;2024-01-30T00:33:57;42.25;;;27.17;;
52764;SDS011;38650;44.536;18.664;2024-01-30T00:36:22;45.83;;;30.40;;
52764;SDS011;38650;44.536;18.664;2024-01-30T00:38:48;42.28;;;28.20;;
52764;SDS011;38650;44.536;18.664;2024-01-30T00:41:14;38.65;;;26.95;;
52764;SDS011;38650;44.536;18.664;2024-01-30T00:43:42;39.13;;;24.92;;
52764;SDS011;38650;44.536;18.664;2024-01-30T00:46:08;38.50;;;24.98;;
52764;SDS011;38650;44.536;18.664;2024-01-30T00:48:33;38.00;;;26.50;;
52764;SDS011;38650;44.536;18.664;2024-01-30T00:50:59;47.25;;;31.80;;
52764;SDS011;38650;44.536;18.664;2024-01-30T00:53:25;46.88;;;29.02;;
52764;SDS011;38650;44.536;18.664;2024-01-30T00:55:51;40.85;;;27.65;;
52764;SDS011;38650;44.536;18.664;2024-01-30T00:58:16;34.50;;;25.52;;
52764;SDS011;38650;44.536;18.664;2024-01-30T01:00:44;33.55;;;23.27;;
52764;SDS011;38650;44.536;18.664;2024-01-30T01:03:10;37.22;;;25.27;;
52764;SDS011;38650;44.536;18.664;2024-01-30T01:05:35;40.47;;;27.65;;
52764;SDS011;38650;44.536;18.664;2024-01-30T01:08:01;38.83;;;27.25;;
52764;SDS011;38650;44.536;18.664;2024-01-30T01:10:27;35.50;;;25.38;;
52764;SDS011;38650;44.536;18.664;2024-01-30T01:12:53;39.47;;;26.15;;
52764;SDS011;38650;44.536;18.664;2024-01-30T01:15:18;36.78;;;24.77;;
52764;SDS011;38650;44.536;18.664;2024-01-30T01:17:44;34.30;;;24.27;;
52764;SDS011;38650;44.536;18.664;2024-01-30T01:20:10;36.15;;;24.10;;
52764;SDS011;38650;44.536;18.664;2024-01-30T01:22:37;35.88;;;25.55;;
52764;SDS011;38650;44.536;18.664;2024-01-30T01:25:06;35.22;;;25.52;;
52764;SDS011;38650;44.536;18.664;2024-01-30T01:27:33;42.33;;;27.90;;
52764;SDS011;38650;44.536;18.664;2024-01-30T01:29:59;37.03;;;25.27;;
52764;SDS011;38650;44.536;18.664;2024-01-30T01:32:26;31.08;;;22.27;;
52764;SDS011;38650;44.536;18.664;2024-01-30T01:34:51;34.83;;;23.80;;
52764;SDS011;38650;44.536;18.664;2024-01-30T01:37:17;33.55;;;23.83;;
52764;SDS011;38650;44.536;18.664;2024-01-30T01:39:43;32.72;;;23.35;;
52764;SDS011;38650;44.536;18.664;2024-01-30T01:42:08;31.38;;;23.17;;
52764;SDS011;38650;44.536;18.664;2024-01-30T01:44:34;36.78;;;24.02;;
52764;SDS011;38650;44.536;18.664;2024-01-30T01:47:00;34.38;;;24.08;;
52764;SDS011;38650;44.536;18.664;2024-01-30T01:49:26;44.67;;;29.45;;
52764;SDS011;38650;44.536;18.664;2024-01-30T01:51:54;37.38;;;26.27;;
52764;SDS011;38650;44.536;18.664;2024-01-30T01:54:23;31.95;;;22.38;;
52764;SDS011;38650;44.536;18.664;2024-01-30T01:56:51;33.22;;;23.17;;
52764;SDS011;38650;44.536;18.664;2024-01-30T01:59:18;34.58;;;23.08;;
52764;SDS011;38650;44.536;18.664;2024-01-30T02:01:45;31.60;;;21.30;;
52764;SDS011;38650;44.536;18.664;2024-01-30T02:04:14;33.30;;;22.73;;
52764;SDS011;38650;44.536;18.664;2024-01-30T02:06:40;74.40;;;45.63;;
52764;SDS011;38650;44.536;18.664;2024-01-30T02:09:06;49.17;;;32.28;;
52764;SDS011;38650;44.536;18.664;2024-01-30T02:11:34;62.70;;;37.25;;
52764;SDS011;38650;44.536;18.664;2024-01-30T02:14:03;53.95;;;36.95;;
52764;SDS011;38650;44.536;18.664;2024-01-30T02:16:29;62.03;;;37.75;;
52764;SDS011;38650;44.536;18.664;2024-01-30T02:18:55;53.28;;;34.92;;
52764;SDS011;38650;44.536;18.664;2024-01-30T02:21:21;56.15;;;34.35;;
52764;SDS011;38650;44.536;18.664;2024-01-30T02:23:46;49.83;;;32.58;;
52764;SDS011;38650;44.536;18.664;2024-01-30T02:26:13;47.15;;;32.05;;
52764;SDS011;38650;44.536;18.664;2024-01-30T02:28:39;39.13;;;26.63;;
52764;SDS011;38650;44.536;18.664;2024-01-30T02:31:04;35.17;;;25.20;;
52764;SDS011;38650;44.536;18.664;2024-01-30T02:33:30;32.88;;;24.38;;
52764;SDS011;38650;44.536;18.664;2024-01-30T02:35:56;34.38;;;24.45;;
52764;SDS011;38650;44.536;18.664;2024-01-30T02:38:22;31.10;;;22.52;;
52764;SDS011;38650;44.536;18.664;2024-01-30T02:40:48;30.33;;;21.27;;
52764;SDS011;38650;44.536;18.664;2024-01-30T02:43:15;27.88;;;19.27;;
52764;SDS011;38650;44.536;18.664;2024-01-30T02:45:41;27.25;;;19.10;;
52764;SDS011;38650;44.536;18.664;2024-01-30T02:48:07;26.85;;;19.00;;
52764;SDS011;38650;44.536;18.664;2024-01-30T02:50:32;29.48;;;20.33;;
52764;SDS011;38650;44.536;18.664;2024-01-30T02:52:58;25.20;;;18.08;;
52764;SDS011;38650;44.536;18.664;2024-01-30T02:55:24;25.55;;;18.10;;
52764;SDS011;38650;44.536;18.664;2024-01-30T02:57:49;22.67;;;16.35;;
52764;SDS011;38650;44.536;18.664;2024-01-30T03:00:15;21.58;;;15.70;;
52764;SDS011;38650;44.536;18.664;2024-01-30T03:02:41;21.02;;;15.70;;
52764;SDS011;38650;44.536;18.664;2024-01-30T03:05:07;25.02;;;15.70;;
52764;SDS011;38650;44.536;18.664;2024-01-30T03:07:33;20.98;;;15.02;;
52764;SDS011;38650;44.536;18.664;2024-01-30T03:09:59;22.10;;;16.08;;
52764;SDS011;38650;44.536;18.664;2024-01-30T03:12:25;23.27;;;15.80;;
52764;SDS011;38650;44.536;18.664;2024-01-30T03:14:51;22.42;;;15.65;;
52764;SDS011;38650;44.536;18.664;2024-01-30T03:17:17;24.63;;;17.33;;
52764;SDS011;38650;44.536;18.664;2024-01-30T03:19:43;28.27;;;19.35;;
52764;SDS011;38650;44.536;18.664;2024-01-30T03:22:09;24.55;;;18.38;;
52764;SDS011;38650;44.536;18.664;2024-01-30T03:24:34;31.02;;;19.67;;
52764;SDS011;38650;44.536;18.664;2024-01-30T03:27:00;24.02;;;16.55;;
52764;SDS011;38650;44.536;18.664;2024-01-30T03:29:26;22.42;;;15.70;;
52764;SDS011;38650;44.536;18.664;2024-01-30T03:31:52;20.58;;;15.48;;
52764;SDS011;38650;44.536;18.664;2024-01-30T03:34:17;18.90;;;13.50;;
52764;SDS011;38650;44.536;18.664;2024-01-30T03:36:43;21.20;;;14.73;;
52764;SDS011;38650;44.536;18.664;2024-01-30T03:39:09;18.80;;;13.73;;
52764;SDS011;38650;44.536;18.664;2024-01-30T03:41:34;18.25;;;13.82;;
52764;SDS011;38650;44.536;18.664;2024-01-30T03:44:01;23.33;;;15.35;;
52764;SDS011;38650;44.536;18.664;2024-01-30T03:46:27;19.38;;;13.77;;
52764;SDS011;38650;44.536;18.664;2024-01-30T03:48:52;18.27;;;12.75;;
52764;SDS011;38650;44.536;18.664;2024-01-30T03:51:18;17.23;;;12.52;;
52764;SDS011;38650;44.536;18.664;2024-01-30T03:53:44;19.27;;;12.85;;
52764;SDS011;38650;44.536;18.664;2024-01-30T03:56:11;18.25;;;12.60;;
52764;SDS011;38650;44.536;18.664;2024-01-30T03:58:40;21.42;;;14.85;;
52764;SDS011;38650;44.536;18.664;2024-01-30T04:01:06;17.42;;;12.30;;
52764;SDS011;38650;44.536;18.664;2024-01-30T04:03:32;14.27;;;11.48;;
52764;SDS011;38650;44.536;18.664;2024-01-30T04:05:57;16.48;;;11.43;;
52764;SDS011;38650;44.536;18.664;2024-01-30T04:08:23;16.42;;;12.27;;
52764;SDS011;38650;44.536;18.664;2024-01-30T04:10:49;24.83;;;17.95;;
52764;SDS011;38650;44.536;18.664;2024-01-30T04:13:14;18.15;;;12.52;;
52764;SDS011;38650;44.536;18.664;2024-01-30T04:15:40;16.80;;;12.05;;
52764;SDS011;38650;44.536;18.664;2024-01-30T04:18:06;17.75;;;12.02;;
52764;SDS011;38650;44.536;18.664;2024-01-30T04:20:31;15.70;;;11.82;;
52764;SDS011;38650;44.536;18.664;2024-01-30T04:22:57;16.45;;;12.70;;
52764;SDS011;38650;44.536;18.664;2024-01-30T04:25:23;18.85;;;12.60;;
52764;SDS011;38650;44.536;18.664;2024-01-30T04:27:48;13.85;;;10.93;;
52764;SDS011;38650;44.536;18.664;2024-01-30T04:30:14;14.65;;;11.18;;
52764;SDS011;38650;44.536;18.664;2024-01-30T04:32:40;12.90;;;9.88;;
52764;SDS011;38650;44.536;18.664;2024-01-30T04:35:06;12.77;;;10.00;;
52764;SDS011;38650;44.536;18.664;2024-01-30T04:37:32;14.68;;;9.93;;
52764;SDS011;38650;44.536;18.664;2024-01-30T04:39:58;18.35;;;11.88;;
52764;SDS011;38650;44.536;18.664;2024-01-30T04:42:23;15.60;;;10.88;;
52764;SDS011;38650;44.536;18.664;2024-01-30T04:44:49;17.20;;;12.10;;
52764;SDS011;38650;44.536;18.664;2024-01-30T04:47:15;24.33;;;16.42;;
52764;SDS011;38650;44.536;18.664;2024-01-30T04:49:41;16.23;;;11.93;;
52764;SDS011;38650;44.536;18.664;2024-01-30T04:52:07;18.85;;;13.27;;
52764;SDS011;38650;44.536;18.664;2024-01-30T04:54:33;17.48;;;11.15;;
52764;SDS011;38650;44.536;18.664;2024-01-30T04:57:00;17.30;;;11.55;;
52764;SDS011;38650;44.536;18.664;2024-01-30T04:59:26;16.48;;;11.38;;
52764;SDS011;38650;44.536;18.664;2024-01-30T05:01:52;16.15;;;10.50;;
52764;SDS011;38650;44.536;18.664;2024-01-30T05:04:17;16.20;;;10.50;;
52764;SDS011;38650;44.536;18.664;2024-01-30T05:06:43;14.80;;;10.35;;
52764;SDS011;38650;44.536;18.664;2024-01-30T05:09:09;15.77;;;10.32;;
52764;SDS011;38650;44.536;18.664;2024-01-30T05:11:38;15.23;;;11.23;;
52764;SDS011;38650;44.536;18.664;2024-01-30T05:14:05;16.52;;;12.23;;
52764;SDS011;38650;44.536;18.664;2024-01-30T05:16:31;17.52;;;12.52;;
52764;SDS011;38650;44.536;18.664;2024-01-30T05:18:57;19.25;;;12.85;;
52764;SDS011;38650;44.536;18.664;2024-01-30T05:21:23;19.25;;;12.68;;
52764;SDS011;38650;44.536;18.664;2024-01-30T05:23:49;22.85;;;14.45;;
52764;SDS011;38650;44.536;18.664;2024-01-30T05:26:14;17.67;;;11.93;;
52764;SDS011;38650;44.536;18.664;2024-01-30T05:28:40;17.85;;;12.60;;
52764;SDS011;38650;44.536;18.664;2024-01-30T05:31:06;18.48;;;12.13;;
52764;SDS011;38650;44.536;18.664;2024-01-30T05:33:32;20.27;;;13.90;;
52764;SDS011;38650;44.536;18.664;2024-01-30T05:35:57;23.77;;;14.85;;
52764;SDS011;38650;44.536;18.664;2024-01-30T05:38:23;31.42;;;18.48;;
52764;SDS011;38650;44.536;18.664;2024-01-30T05:40:49;23.48;;;15.55;;
52764;SDS011;38650;44.536;18.664;2024-01-30T05:43:14;32.15;;;20.50;;
52764;SDS011;38650;44.536;18.664;2024-01-30T05:45:40;26.77;;;17.05;;
52764;SDS011;38650;44.536;18.664;2024-01-30T05:48:06;32.67;;;19.95;;
52764;SDS011;38650;44.536;18.664;2024-01-30T05:50:32;46.70;;;28.23;;
52764;SDS011;38650;44.536;18.664;2024-01-30T05:52:57;36.55;;;24.45;;
52764;SDS011;38650;44.536;18.664;2024-01-30T05:55:23;44.15;;;26.85;;
52764;SDS011;38650;44.536;18.664;2024-01-30T05:57:49;49.92;;;31.67;;
52764;SDS011;38650;44.536;18.664;2024-01-30T06:00:16;42.65;;;27.90;;
52764;SDS011;38650;44.536;18.664;2024-01-30T06:02:42;35.10;;;23.42;;
52764;SDS011;38650;44.536;18.664;2024-01-30T06:05:07;32.33;;;22.05;;
52764;SDS011;38650;44.536;18.664;2024-01-30T06:07:33;35.70;;;23.98;;
52764;SDS011;38650;44.536;18.664;2024-01-30T06:09:59;36.20;;;23.63;;
52764;SDS011;38650;44.536;18.664;2024-01-30T06:12:27;31.55;;;22.33;;
52764;SDS011;38650;44.536;18.664;2024-01-30T06:14:53;33.40;;;21.55;;
52764;SDS011;38650;44.536;18.664;2024-01-30T06:17:22;29.20;;;19.55;;
52764;SDS011;38650;44.536;18.664;2024-01-30T06:19:48;27.73;;;18.63;;
52764;SDS011;38650;44.536;18.664;2024-01-30T06:22:14;29.45;;;18.98;;
52764;SDS011;38650;44.536;18.664;2024-01-30T06:24:40;36.33;;;22.42;;
52764;SDS011;38650;44.536;18.664;2024-01-30T06:27:06;27.88;;;18.92;;
52764;SDS011;38650;44.536;18.664;2024-01-30T06:29:32;28.58;;;20.75;;
52764;SDS011;38650;44.536;18.664;2024-01-30T06:31:57;34.53;;;23.45;;
52764;SDS011;38650;44.536;18.664;2024-01-30T06:34:23;26.60;;;19.15;;
52764;SDS011;38650;44.536;18.664;2024-01-30T06:36:51;36.10;;;24.35;;
52764;SDS011;38650;44.536;18.664;2024-01-30T06:39:17;29.45;;;19.85;;
52764;SDS011;38650;44.536;18.664;2024-01-30T06:41:43;34.33;;;22.40;;
52764;SDS011;38650;44.536;18.664;2024-01-30T06:44:11;33.20;;;23.35;;
52764;SDS011;38650;44.536;18.664;2024-01-30T06:46:38;27.13;;;19.35;;
52764;SDS011;38650;44.536;18.664;2024-01-30T06:49:04;25.75;;;18.98;;
52764;SDS011;38650;44.536;18.664;2024-01-30T06:51:30;31.52;;;21.75;;
52764;SDS011;38650;44.536;18.664;2024-01-30T06:53:56;35.70;;;23.48;;
52764;SDS011;38650;44.536;18.664;2024-01-30T06:56:21;38.55;;;24.67;;
52764;SDS011;38650;44.536;18.664;2024-01-30T06:58:50;65.15;;;37.67;;
52764;SDS011;38650;44.536;18.664;2024-01-30T07:01:16;39.67;;;25.92;;
52764;SDS011;38650;44.536;18.664;2024-01-30T07:03:42;36.10;;;23.40;;
52764;SDS011;38650;44.536;18.664;2024-01-30T07:06:08;35.40;;;24.75;;
52764;SDS011;38650;44.536;18.664;2024-01-30T07:08:43;28.95;;;20.08;;
52764;SDS011;38650;44.536;18.664;2024-01-30T07:11:18;63.75;;;38.67;;
52764;SDS011;38650;44.536;18.664;2024-01-30T07:13:45;90.88;;;54.15;;
52764;SDS011;38650;44.536;18.664;2024-01-30T07:16:11;164.27;;;97.97;;
52764;SDS011;38650;44.536;18.664;2024-01-30T07:18:37;173.52;;;106.55;;
52764;SDS011;38650;44.536;18.664;2024-01-30T07:21:03;169.18;;;103.10;;
52764;SDS011;38650;44.536;18.664;2024-01-30T07:23:30;130.65;;;80.38;;
52764;SDS011;38650;44.536;18.664;2024-01-30T07:25:55;112.32;;;69.30;;
52764;SDS011;38650;44.536;18.664;2024-01-30T07:28:21;122.50;;;73.78;;
52764;SDS011;38650;44.536;18.664;2024-01-30T07:30:48;98.60;;;63.58;;
52764;SDS011;38650;44.536;18.664;2024-01-30T07:33:14;105.55;;;66.38;;
52764;SDS011;38650;44.536;18.664;2024-01-30T07:35:39;101.10;;;63.33;;
52764;SDS011;38650;44.536;18.664;2024-01-30T07:38:05;170.30;;;108.60;;
52764;SDS011;38650;44.536;18.664;2024-01-30T07:40:31;241.55;;;154.85;;
52764;SDS011;38650;44.536;18.664;2024-01-30T07:42:58;359.13;;;220.80;;
52764;SDS011;38650;44.536;18.664;2024-01-30T07:45:24;259.45;;;167.68;;
52764;SDS011;38650;44.536;18.664;2024-01-30T07:47:52;293.42;;;199.32;;
52764;SDS011;38650;44.536;18.664;2024-01-30T07:50:17;222.30;;;155.93;;
52764;SDS011;38650;44.536;18.664;2024-01-30T07:52:45;208.90;;;149.60;;
52764;SDS011;38650;44.536;18.664;2024-01-30T07:55:22;194.57;;;142.13;;
52764;SDS011;38650;44.536;18.664;2024-01-30T07:57:51;183.98;;;137.95;;
52764;SDS011;38650;44.536;18.664;2024-01-30T08:00:17;168.18;;;125.95;;
52764;SDS011;38650;44.536;18.664;2024-01-30T08:02:45;156.25;;;123.57;;
52764;SDS011;38650;44.536;18.664;2024-01-30T08:05:10;151.10;;;115.07;;
52764;SDS011;38650;44.536;18.664;2024-01-30T08:07:36;136.23;;;107.47;;
52764;SDS011;38650;44.536;18.664;2024-01-30T08:10:02;115.50;;;94.20;;
52764;SDS011;38650;44.536;18.664;2024-01-30T08:12:28;107.45;;;86.28;;
52764;SDS011;38650;44.536;18.664;2024-01-30T08:14:54;98.60;;;79.15;;
52764;SDS011;38650;44.536;18.664;2024-01-30T08:17:21;87.78;;;73.22;;
52764;SDS011;38650;44.536;18.664;2024-01-30T08:19:47;83.28;;;65.57;;
52764;SDS011;38650;44.536;18.664;2024-01-30T08:22:13;80.70;;;63.25;;
52764;SDS011;38650;44.536;18.664;2024-01-30T08:24:39;79.25;;;64.03;;
52764;SDS011;38650;44.536;18.664;2024-01-30T08:27:06;77.82;;;62.92;;
52764;SDS011;38650;44.536;18.664;2024-01-30T08:29:34;75.18;;;61.88;;
52764;SDS011;38650;44.536;18.664;2024-01-30T08:32:00;82.32;;;65.60;;
52764;SDS011;38650;44.536;18.664;2024-01-30T08:34:26;80.72;;;67.85;;
52764;SDS011;38650;44.536;18.664;2024-01-30T08:36:52;84.07;;;68.20;;
52764;SDS011;38650;44.536;18.664;2024-01-30T08:39:18;78.68;;;66.00;;
52764;SDS011;38650;44.536;18.664;2024-01-30T08:41:44;75.40;;;64.22;;
52764;SDS011;38650;44.536;18.664;2024-01-30T08:44:16;81.40;;;67.65;;
52764;SDS011;38650;44.536;18.664;2024-01-30T08:46:53;65.45;;;57.15;;
52764;SDS011;38650;44.536;18.664;2024-01-30T08:49:33;66.22;;;55.72;;
52764;SDS011;38650;44.536;18.664;2024-01-30T08:52:09;63.92;;;56.53;;
52764;SDS011;38650;44.536;18.664;2024-01-30T08:54:38;62.30;;;55.45;;
52764;SDS011;38650;44.536;18.664;2024-01-30T08:57:05;60.90;;;53.10;;
52764;SDS011;38650;44.536;18.664;2024-01-30T08:59:32;52.70;;;46.20;;
52764;SDS011;38650;44.536;18.664;2024-01-30T09:01:59;47.95;;;42.80;;
52764;SDS011;38650;44.536;18.664;2024-01-30T09:04:25;58.75;;;50.25;;
52764;SDS011;38650;44.536;18.664;2024-01-30T09:06:51;47.97;;;42.83;;
52764;SDS011;38650;44.536;18.664;2024-01-30T09:09:17;55.78;;;44.00;;
52764;SDS011;38650;44.536;18.664;2024-01-30T09:11:44;44.83;;;38.75;;
52764;SDS011;38650;44.536;18.664;2024-01-30T09:14:12;39.75;;;35.42;;
52764;SDS011;38650;44.536;18.664;2024-01-30T09:16:51;38.58;;;34.30;;
52764;SDS011;38650;44.536;18.664;2024-01-30T09:19:24;35.35;;;31.58;;
52764;SDS011;38650;44.536;18.664;2024-01-30T09:22:11;36.13;;;32.33;;
52764;SDS011;38650;44.536;18.664;2024-01-30T09:24:37;52.30;;;42.70;;
52764;SDS011;38650;44.536;18.664;2024-01-30T09:27:03;42.20;;;37.67;;
52764;SDS011;38650;44.536;18.664;2024-01-30T09:29:34;47.30;;;39.58;;
52764;SDS011;38650;44.536;18.664;2024-01-30T09:32:02;43.45;;;38.55;;
52764;SDS011;38650;44.536;18.664;2024-01-30T09:34:30;39.25;;;35.13;;
52764;SDS011;38650;44.536;18.664;2024-01-30T09:36:56;36.22;;;32.40;;
52764;SDS011;38650;44.536;18.664;2024-01-30T09:39:22;34.45;;;30.88;;
52764;SDS011;38650;44.536;18.664;2024-01-30T09:42:11;33.67;;;30.15;;
52764;SDS011;38650;44.536;18.664;2024-01-30T09:44:50;32.03;;;28.70;;
52764;SDS011;38650;44.536;18.664;2024-01-30T09:47:18;30.92;;;27.58;;
52764;SDS011;38650;44.536;18.664;2024-01-30T09:49:44;41.83;;;37.30;;
52764;SDS011;38650;44.536;18.664;2024-01-30T09:52:11;42.30;;;37.75;;
52764;SDS011;38650;44.536;18.664;2024-01-30T09:55:04;35.83;;;31.95;;
52764;SDS011;38650;44.536;18.664;2024-01-30T09:57:32;36.00;;;32.17;;
52764;SDS011;38650;44.536;18.664;2024-01-30T10:00:02;37.47;;;33.50;;
52764;SDS011;38650;44.536;18.664;2024-01-30T10:02:30;36.53;;;32.63;;
52764;SDS011;38650;44.536;18.664;2024-01-30T10:04:57;39.55;;;35.45;;
52764;SDS011;38650;44.536;18.664;2024-01-30T10:07:23;37.53;;;33.65;;
52764;SDS011;38650;44.536;18.664;2024-01-30T10:09:49;35.38;;;31.73;;
52764;SDS011;38650;44.536;18.664;2024-01-30T10:12:15;33.42;;;30.08;;
52764;SDS011;38650;44.536;18.664;2024-01-30T10:14:41;32.42;;;29.13;;
52764;SDS011;38650;44.536;18.664;2024-01-30T10:17:08;31.45;;;28.23;;
52764;SDS011;38650;44.536;18.664;2024-01-30T10:19:35;30.80;;;27.60;;
52764;SDS011;38650;44.536;18.664;2024-01-30T10:22:01;28.67;;;25.77;;
52764;SDS011;38650;44.536;18.664;2024-01-30T10:24:28;25.75;;;23.25;;
52764;SDS011;38650;44.536;18.664;2024-01-30T10:26:56;24.48;;;22.08;;
52764;SDS011;38650;44.536;18.664;2024-01-30T10:29:23;24.80;;;22.40;;
52764;SDS011;38650;44.536;18.664;2024-01-30T10:34:25;24.67;;;22.27;;
52764;SDS011;38650;44.536;18.664;2024-01-30T10:36:55;23.17;;;20.70;;
52764;SDS011;38650;44.536;18.664;2024-01-30T10:39:29;23.30;;;20.90;;
52764;SDS011;38650;44.536;18.664;2024-01-30T10:41:58;22.10;;;19.83;;
52764;SDS011;38650;44.536;18.664;2024-01-30T10:44:36;19.67;;;17.73;;
52764;SDS011;38650;44.536;18.664;2024-01-30T10:47:11;20.15;;;18.23;;
52764;SDS011;38650;44.536;18.664;2024-01-30T10:49:41;20.13;;;18.27;;
52764;SDS011;38650;44.536;18.664;2024-01-30T10:52:13;19.50;;;17.60;;
52764;SDS011;38650;44.536;18.664;2024-01-30T10:54:42;18.98;;;17.08;;
52764;SDS011;38650;44.536;18.664;2024-01-30T10:57:10;17.20;;;15.63;;
52764;SDS011;38650;44.536;18.664;2024-01-30T10:59:38;17.45;;;15.65;;
52764;SDS011;38650;44.536;18.664;2024-01-30T11:02:04;15.43;;;13.95;;
52764;SDS011;38650;44.536;18.664;2024-01-30T11:04:37;13.82;;;12.63;;
52764;SDS011;38650;44.536;18.664;2024-01-30T11:09:48;11.98;;;10.88;;
52764;SDS011;38650;44.536;18.664;2024-01-30T11:12:26;10.95;;;9.85;;
52764;SDS011;38650;44.536;18.664;2024-01-30T11:20:14;7.95;;;7.25;;
52764;SDS011;38650;44.536;18.664;2024-01-30T11:22:42;7.60;;;6.85;;
52764;SDS011;38650;44.536;18.664;2024-01-30T11:25:11;6.03;;;5.53;;
52764;SDS011;38650;44.536;18.664;2024-01-30T11:27:38;5.13;;;4.72;;
52764;SDS011;38650;44.536;18.664;2024-01-30T11:30:04;4.28;;;3.95;;
52764;SDS011;38650;44.536;18.664;2024-01-30T11:32:31;4.72;;;3.70;;
52764;SDS011;38650;44.536;18.664;2024-01-30T11:34:56;4.88;;;4.47;;
52764;SDS011;38650;44.536;18.664;2024-01-30T11:37:24;5.28;;;4.78;;
52764;SDS011;38650;44.536;18.664;2024-01-30T11:39:53;7.20;;;6.50;;
52764;SDS011;38650;44.536;18.664;2024-01-30T11:42:19;6.03;;;5.53;;
52764;SDS011;38650;44.536;18.664;2024-01-30T11:44:47;3.92;;;3.60;;
52764;SDS011;38650;44.536;18.664;2024-01-30T11:47:13;3.83;;;3.42;;
52764;SDS011;38650;44.536;18.664;2024-01-30T11:49:41;3.70;;;3.40;;
52764;SDS011;38650;44.536;18.664;2024-01-30T11:52:09;4.15;;;3.80;;
52764;SDS011;38650;44.536;18.664;2024-01-30T11:54:41;3.30;;;3.00;;
52764;SDS011;38650;44.536;18.664;2024-01-30T11:57:07;3.60;;;3.30;;
52764;SDS011;38650;44.536;18.664;2024-01-30T11:59:34;5.35;;;4.85;;
52764;SDS011;38650;44.536;18.664;2024-01-30T12:01:59;5.13;;;4.72;;
52764;SDS011;38650;44.536;18.664;2024-01-30T12:04:28;3.60;;;3.30;;
52764;SDS011;38650;44.536;18.664;2024-01-30T12:06:54;2.88;;;2.53;;
52764;SDS011;38650;44.536;18.664;2024-01-30T12:09:20;3.33;;;3.03;;
52764;SDS011;38650;44.536;18.664;2024-01-30T12:11:47;2.95;;;2.65;;
52764;SDS011;38650;44.536;18.664;2024-01-30T12:14:13;3.20;;;2.90;;
52764;SDS011;38650;44.536;18.664;2024-01-30T12:16:40;3.35;;;3.05;;
52764;SDS011;38650;44.536;18.664;2024-01-30T12:19:08;4.03;;;3.65;;
52764;SDS011;38650;44.536;18.664;2024-01-30T12:21:34;5.57;;;5.07;;
52764;SDS011;38650;44.536;18.664;2024-01-30T12:24:01;4.40;;;4.03;;
52764;SDS011;38650;44.536;18.664;2024-01-30T12:26:26;3.65;;;3.38;;
52764;SDS011;38650;44.536;18.664;2024-01-30T12:28:56;3.55;;;3.25;;
52764;SDS011;38650;44.536;18.664;2024-01-30T12:33:58;3.53;;;3.22;;
52764;SDS011;38650;44.536;18.664;2024-01-30T12:36:25;4.70;;;4.30;;
52764;SDS011;38650;44.536;18.664;2024-01-30T12:38:51;4.25;;;3.85;;
52764;SDS011;38650;44.536;18.664;2024-01-30T12:41:17;4.20;;;3.80;;
52764;SDS011;38650;44.536;18.664;2024-01-30T12:43:43;5.20;;;4.75;;
52764;SDS011;38650;44.536;18.664;2024-01-30T12:46:09;4.40;;;4.00;;
52764;SDS011;38650;44.536;18.664;2024-01-30T12:48:35;3.83;;;3.53;;
52764;SDS011;38650;44.536;18.664;2024-01-30T12:51:01;3.67;;;3.38;;
52764;SDS011;38650;44.536;18.664;2024-01-30T12:53:26;7.93;;;5.28;;
52764;SDS011;38650;44.536;18.664;2024-01-30T12:55:52;9.05;;;7.20;;
52764;SDS011;38650;44.536;18.664;2024-01-30T12:58:19;5.80;;;4.70;;
52764;SDS011;38650;44.536;18.664;2024-01-30T13:00:45;3.97;;;3.58;;
52764;SDS011;38650;44.536;18.664;2024-01-30T13:03:12;3.70;;;3.13;;
52764;SDS011;38650;44.536;18.664;2024-01-30T13:05:38;3.38;;;3.03;;
52764;SDS011;38650;44.536;18.664;2024-01-30T13:08:03;3.40;;;3.10;;
52764;SDS011;38650;44.536;18.664;2024-01-30T13:10:29;5.18;;;4.45;;
52764;SDS011;38650;44.536;18.664;2024-01-30T13:12:55;4.88;;;4.47;;
52764;SDS011;38650;44.536;18.664;2024-01-30T13:15:21;3.95;;;3.63;;
52764;SDS011;38650;44.536;18.664;2024-01-30T13:17:48;3.90;;;3.60;;
52764;SDS011;38650;44.536;18.664;2024-01-30T13:20:14;3.85;;;3.20;;
52764;SDS011;38650;44.536;18.664;2024-01-30T13:22:44;3.17;;;2.88;;
52764;SDS011;38650;44.536;18.664;2024-01-30T13:25:10;1.90;;;1.80;;
52764;SDS011;38650;44.536;18.664;2024-01-30T13:27:36;2.50;;;2.30;;
52764;SDS011;38650;44.536;18.664;2024-01-30T13:30:02;3.08;;;2.78;;
52764;SDS011;38650;44.536;18.664;2024-01-30T13:32:29;4.28;;;3.90;;
52764;SDS011;38650;44.536;18.664;2024-01-30T13:34:54;4.18;;;3.78;;
52764;SDS011;38650;44.536;18.664;2024-01-30T13:37:21;3.50;;;3.20;;
52764;SDS011;38650;44.536;18.664;2024-01-30T13:39:47;3.85;;;2.50;;
52764;SDS011;38650;44.536;18.664;2024-01-30T13:42:13;3.33;;;2.30;;
52764;SDS011;38650;44.536;18.664;2024-01-30T13:44:38;2.22;;;2.03;;
52764;SDS011;38650;44.536;18.664;2024-01-30T13:47:04;7.03;;;6.40;;
52764;SDS011;38650;44.536;18.664;2024-01-30T13:49:30;8.20;;;7.40;;
52764;SDS011;38650;44.536;18.664;2024-01-30T13:51:56;7.70;;;7.10;;
52764;SDS011;38650;44.536;18.664;2024-01-30T13:54:23;8.32;;;7.57;;
52764;SDS011;38650;44.536;18.664;2024-01-30T13:56:48;13.65;;;12.30;;
52764;SDS011;38650;44.536;18.664;2024-01-30T13:59:14;14.27;;;12.52;;
52764;SDS011;38650;44.536;18.664;2024-01-30T14:01:40;9.38;;;8.48;;
52764;SDS011;38650;44.536;18.664;2024-01-30T14:04:06;9.82;;;8.80;;
52764;SDS011;38650;44.536;18.664;2024-01-30T14:06:31;11.00;;;10.00;;
52764;SDS011;38650;44.536;18.664;2024-01-30T14:08:57;52.83;;;47.28;;
52764;SDS011;38650;44.536;18.664;2024-01-30T14:11:23;43.20;;;38.97;;
52764;SDS011;38650;44.536;18.664;2024-01-30T14:13:49;37.63;;;34.03;;
52764;SDS011;38650;44.536;18.664;2024-01-30T14:16:15;43.72;;;39.50;;
52764;SDS011;38650;44.536;18.664;2024-01-30T14:18:41;31.95;;;29.10;;
52764;SDS011;38650;44.536;18.664;2024-01-30T14:21:07;43.65;;;37.03;;
52764;SDS011;38650;44.536;18.664;2024-01-30T14:23:33;27.77;;;24.30;;
52764;SDS011;38650;44.536;18.664;2024-01-30T14:25:59;31.42;;;27.45;;